sensor_id;sensor_type;location;lat;lon;timestamp;pressure;altitude;pressure_sealevel;temperature;humidity
72975;BME280;61166;54.228;37.632;2023-04-12T04:23:24;99296.38;;;16.89;nan
72975;BME280;61166;54.228;37.632;2023-04-12T04:28:17;99301.69;;;16.89;nan
72975;BME280;61166;54.228;37.632;2023-04-12T04:30:43;99295.69;;;16.71;nan
72975;BME280;61166;54.228;37.632;2023-04-12T04:33:13;99309.31;;;18.55;nan
72975;BME280;61166;54.228;37.632;2023-04-12T04:35:39;99305.00;;;19.27;nan
72975;BME280;61166;54.228;37.632;2023-04-12T04:38:06;99303.97;;;19.89;nan
72975;BME280;61166;54.228;37.632;2023-04-12T04:40:35;99306.88;;;20.02;nan
72975;BME280;61166;54.228;37.632;2023-04-12T04:43:02;99300.31;;;20.59;nan
72975;BME280;61166;54.228;37.632;2023-04-12T04:45:30;99298.88;;;21.31;nan
72975;BME280;61166;54.228;37.632;2023-04-12T04:47:56;99303.41;;;22.23;nan
72975;BME280;61166;54.228;37.632;2023-04-12T04:50:23;99293.78;;;22.46;nan
72975;BME280;61166;54.228;37.632;2023-04-12T04:52:51;99301.53;;;22.90;nan
72975;BME280;61166;54.228;37.632;2023-04-12T04:55:17;99294.69;;;23.54;nan
72975;BME280;61166;54.228;37.632;2023-04-12T04:57:44;99297.19;;;24.24;nan
72975;BME280;61166;54.228;37.632;2023-04-12T05:00:11;99295.03;;;25.03;nan
72975;BME280;61166;54.228;37.632;2023-04-12T05:02:38;99294.88;;;25.66;nan
72975;BME280;61166;54.228;37.632;2023-04-12T05:05:06;99293.78;;;25.67;nan
72975;BME280;61166;54.228;37.632;2023-04-12T05:07:33;99296.09;;;26.22;nan
72975;BME280;61166;54.228;37.632;2023-04-12T05:09:59;99287.78;;;26.58;nan
72975;BME280;61166;54.228;37.632;2023-04-12T05:12:26;99292.16;;;27.28;nan
72975;BME280;61166;54.228;37.632;2023-04-12T05:14:52;99287.53;;;27.38;nan
72975;BME280;61166;54.228;37.632;2023-04-12T05:17:36;99289.25;;;28.53;nan
72975;BME280;61166;54.228;37.632;2023-04-12T05:20:03;99287.22;;;28.71;nan
72975;BME280;61166;54.228;37.632;2023-04-12T05:22:29;99283.22;;;28.77;nan
72975;BME280;61166;54.228;37.632;2023-04-12T05:24:56;99286.84;;;28.81;nan
72975;BME280;61166;54.228;37.632;2023-04-12T05:27:23;99280.38;;;28.94;nan
72975;BME280;61166;54.228;37.632;2023-04-12T05:29:49;99279.66;;;29.60;nan
72975;BME280;61166;54.228;37.632;2023-04-12T05:32:15;99273.31;;;30.13;nan
72975;BME280;61166;54.228;37.632;2023-04-12T05:34:42;99273.75;;;30.15;nan
72975;BME280;61166;54.228;37.632;2023-04-12T05:37:08;99274.44;;;30.48;nan
72975;BME280;61166;54.228;37.632;2023-04-12T05:39:35;99271.16;;;30.43;nan
72975;BME280;61166;54.228;37.632;2023-04-12T05:42:02;99268.88;;;30.08;nan
72975;BME280;61166;54.228;37.632;2023-04-12T05:44:28;99260.50;;;29.89;nan
72975;BME280;61166;54.228;37.632;2023-04-12T05:46:55;99264.03;;;30.14;nan
72975;BME280;61166;54.228;37.632;2023-04-12T05:49:22;99261.88;;;29.50;nan
72975;BME280;61166;54.228;37.632;2023-04-12T05:51:48;99248.19;;;29.92;nan
72975;BME280;61166;54.228;37.632;2023-04-12T05:54:16;99250.47;;;30.38;nan
72975;BME280;61166;54.228;37.632;2023-04-12T05:56:43;99251.22;;;31.31;nan
72975;BME280;61166;54.228;37.632;2023-04-12T05:59:09;99248.44;;;30.60;nan
72975;BME280;61166;54.228;37.632;2023-04-12T06:01:36;99251.69;;;30.53;nan
72975;BME280;61166;54.228;37.632;2023-04-12T06:04:02;99246.19;;;30.25;nan
72975;BME280;61166;54.228;37.632;2023-04-12T06:06:29;99261.75;;;29.46;nan
72975;BME280;61166;54.228;37.632;2023-04-12T06:08:56;99266.25;;;29.87;nan
72975;BME280;61166;54.228;37.632;2023-04-12T06:11:23;99266.44;;;28.63;nan
72975;BME280;61166;54.228;37.632;2023-04-12T06:13:50;99269.03;;;27.74;nan
72975;BME280;61166;54.228;37.632;2023-04-12T06:16:17;99256.25;;;28.01;nan
72975;BME280;61166;54.228;37.632;2023-04-12T06:18:43;99269.41;;;27.47;nan
72975;BME280;61166;54.228;37.632;2023-04-12T06:21:10;99271.59;;;28.17;nan
72975;BME280;61166;54.228;37.632;2023-04-12T06:23:36;99268.00;;;28.64;nan
72975;BME280;61166;54.228;37.632;2023-04-12T06:26:03;99265.19;;;28.81;nan
72975;BME280;61166;54.228;37.632;2023-04-12T06:28:30;99265.63;;;29.24;nan
72975;BME280;61166;54.228;37.632;2023-04-12T06:30:56;99268.53;;;28.57;nan
72975;BME280;61166;54.228;37.632;2023-04-12T06:33:23;99271.03;;;28.33;nan
72975;BME280;61166;54.228;37.632;2023-04-12T06:35:49;99255.56;;;28.42;nan
72975;BME280;61166;54.228;37.632;2023-04-12T06:38:17;99265.56;;;28.71;nan
72975;BME280;61166;54.228;37.632;2023-04-12T06:40:43;99262.38;;;28.48;nan
72975;BME280;61166;54.228;37.632;2023-04-12T06:43:11;99257.19;;;29.05;nan
72975;BME280;61166;54.228;37.632;2023-04-12T06:45:37;99256.91;;;29.19;nan
72975;BME280;61166;54.228;37.632;2023-04-12T06:48:04;99266.97;;;29.18;nan
72975;BME280;61166;54.228;37.632;2023-04-12T06:50:31;99250.28;;;28.45;nan
72975;BME280;61166;54.228;37.632;2023-04-12T06:52:57;99247.16;;;27.50;nan
72975;BME280;61166;54.228;37.632;2023-04-12T06:55:24;99247.44;;;28.42;nan
72975;BME280;61166;54.228;37.632;2023-04-12T06:57:51;99240.03;;;29.01;nan
72975;BME280;61166;54.228;37.632;2023-04-12T07:00:17;99255.44;;;28.38;nan
72975;BME280;61166;54.228;37.632;2023-04-12T07:02:44;99249.53;;;29.07;nan
72975;BME280;61166;54.228;37.632;2023-04-12T07:05:11;99252.44;;;27.29;nan
72975;BME280;61166;54.228;37.632;2023-04-12T07:07:37;99236.44;;;26.98;nan
72975;BME280;61166;54.228;37.632;2023-04-12T07:10:05;99235.19;;;27.77;nan
72975;BME280;61166;54.228;37.632;2023-04-12T07:12:32;99246.91;;;28.27;nan
72975;BME280;61166;54.228;37.632;2023-04-12T07:14:58;99239.41;;;28.83;nan
72975;BME280;61166;54.228;37.632;2023-04-12T07:17:25;99227.03;;;28.74;nan
72975;BME280;61166;54.228;37.632;2023-04-12T07:19:55;99229.34;;;28.04;nan
72975;BME280;61166;54.228;37.632;2023-04-12T07:22:21;99238.56;;;28.03;nan
72975;BME280;61166;54.228;37.632;2023-04-12T07:24:49;99257.69;;;27.17;nan
72975;BME280;61166;54.228;37.632;2023-04-12T07:27:16;99250.53;;;26.69;nan
72975;BME280;61166;54.228;37.632;2023-04-12T07:29:42;99231.78;;;26.47;nan
72975;BME280;61166;54.228;37.632;2023-04-12T07:32:09;99238.69;;;26.30;nan
72975;BME280;61166;54.228;37.632;2023-04-12T07:34:36;99232.91;;;26.89;nan
72975;BME280;61166;54.228;37.632;2023-04-12T07:37:02;99235.91;;;26.61;nan
72975;BME280;61166;54.228;37.632;2023-04-12T07:39:29;99231.13;;;26.33;nan
72975;BME280;61166;54.228;37.632;2023-04-12T07:41:56;99227.84;;;26.79;nan
72975;BME280;61166;54.228;37.632;2023-04-12T07:44:22;99255.13;;;26.69;nan
72975;BME280;61166;54.228;37.632;2023-04-12T07:46:49;99231.91;;;26.33;nan
72975;BME280;61166;54.228;37.632;2023-04-12T07:49:15;99246.84;;;26.39;nan
72975;BME280;61166;54.228;37.632;2023-04-12T07:51:42;99233.91;;;26.19;nan
72975;BME280;61166;54.228;37.632;2023-04-12T07:54:09;99265.66;;;25.82;nan
72975;BME280;61166;54.228;37.632;2023-04-12T07:56:35;99232.66;;;26.25;nan
72975;BME280;61166;54.228;37.632;2023-04-12T07:59:02;99244.28;;;26.34;nan
72975;BME280;61166;54.228;37.632;2023-04-12T08:01:28;99233.34;;;27.51;nan
72975;BME280;61166;54.228;37.632;2023-04-12T08:03:55;99232.25;;;26.57;nan
72975;BME280;61166;54.228;37.632;2023-04-12T08:06:22;99257.47;;;26.05;nan
72975;BME280;61166;54.228;37.632;2023-04-12T08:08:49;99250.09;;;25.79;nan
72975;BME280;61166;54.228;37.632;2023-04-12T08:11:15;99238.69;;;25.07;nan
72975;BME280;61166;54.228;37.632;2023-04-12T08:13:42;99242.41;;;24.97;nan
72975;BME280;61166;54.228;37.632;2023-04-12T08:16:08;99238.13;;;26.03;nan
72975;BME280;61166;54.228;37.632;2023-04-12T08:18:35;99229.69;;;25.87;nan
72975;BME280;61166;54.228;37.632;2023-04-12T08:21:01;99228.84;;;25.24;nan
72975;BME280;61166;54.228;37.632;2023-04-12T08:23:28;99229.94;;;25.01;nan
72975;BME280;61166;54.228;37.632;2023-04-12T08:25:55;99238.22;;;24.91;nan
72975;BME280;61166;54.228;37.632;2023-04-12T08:28:21;99221.44;;;25.08;nan
72975;BME280;61166;54.228;37.632;2023-04-12T08:30:48;99221.28;;;25.26;nan
72975;BME280;61166;54.228;37.632;2023-04-12T08:33:14;99214.84;;;25.36;nan
72975;BME280;61166;54.228;37.632;2023-04-12T08:35:41;99220.16;;;25.05;nan
72975;BME280;61166;54.228;37.632;2023-04-12T08:38:07;99203.59;;;25.12;nan
72975;BME280;61166;54.228;37.632;2023-04-12T08:40:34;99225.38;;;25.55;nan
72975;BME280;61166;54.228;37.632;2023-04-12T08:43:01;99224.44;;;24.84;nan
72975;BME280;61166;54.228;37.632;2023-04-12T08:45:34;99219.88;;;24.93;nan
72975;BME280;61166;54.228;37.632;2023-04-12T08:48:02;99222.19;;;24.99;nan
72975;BME280;61166;54.228;37.632;2023-04-12T08:50:29;99202.44;;;24.90;nan
72975;BME280;61166;54.228;37.632;2023-04-12T08:52:59;99203.03;;;25.01;nan
72975;BME280;61166;54.228;37.632;2023-04-12T08:55:26;99190.06;;;24.81;nan
72975;BME280;61166;54.228;37.632;2023-04-12T08:57:53;99209.94;;;25.38;nan
72975;BME280;61166;54.228;37.632;2023-04-12T09:00:21;99209.47;;;25.36;nan
72975;BME280;61166;54.228;37.632;2023-04-12T09:02:47;99190.56;;;25.89;nan
72975;BME280;61166;54.228;37.632;2023-04-12T09:05:14;99192.84;;;26.22;nan
72975;BME280;61166;54.228;37.632;2023-04-12T09:07:41;99181.69;;;26.06;nan
72975;BME280;61166;54.228;37.632;2023-04-12T09:10:08;99183.59;;;26.06;nan
72975;BME280;61166;54.228;37.632;2023-04-12T09:12:34;99180.59;;;25.98;nan
72975;BME280;61166;54.228;37.632;2023-04-12T09:17:31;99157.88;;;25.82;nan
72975;BME280;61166;54.228;37.632;2023-04-12T09:19:58;99148.03;;;25.38;nan
72975;BME280;61166;54.228;37.632;2023-04-12T09:22:34;99180.28;;;24.49;nan
72975;BME280;61166;54.228;37.632;2023-04-12T09:25:01;99173.56;;;24.96;nan
72975;BME280;61166;54.228;37.632;2023-04-12T09:27:28;99167.50;;;25.13;nan
72975;BME280;61166;54.228;37.632;2023-04-12T09:30:08;99143.84;;;25.01;nan
72975;BME280;61166;54.228;37.632;2023-04-12T09:32:34;99155.84;;;24.23;nan
72975;BME280;61166;54.228;37.632;2023-04-12T09:35:01;99134.28;;;24.95;nan
72975;BME280;61166;54.228;37.632;2023-04-12T09:37:27;99148.59;;;24.59;nan
72975;BME280;61166;54.228;37.632;2023-04-12T09:40:01;99142.84;;;23.75;nan
72975;BME280;61166;54.228;37.632;2023-04-12T09:42:28;99143.97;;;22.82;nan
72975;BME280;61166;54.228;37.632;2023-04-12T09:45:23;99143.50;;;22.93;nan
72975;BME280;61166;54.228;37.632;2023-04-12T09:47:50;99141.03;;;22.97;nan
72975;BME280;61166;54.228;37.632;2023-04-12T09:50:28;99132.78;;;22.74;nan
72975;BME280;61166;54.228;37.632;2023-04-12T09:52:56;99140.25;;;22.78;nan
72975;BME280;61166;54.228;37.632;2023-04-12T09:55:25;99122.00;;;22.80;nan
72975;BME280;61166;54.228;37.632;2023-04-12T09:57:53;99159.19;;;22.49;nan
72975;BME280;61166;54.228;37.632;2023-04-12T10:00:22;99127.41;;;22.42;nan
72975;BME280;61166;54.228;37.632;2023-04-12T10:02:50;99135.13;;;22.01;nan
72975;BME280;61166;54.228;37.632;2023-04-12T10:05:20;99119.84;;;21.06;nan
72975;BME280;61166;54.228;37.632;2023-04-12T10:07:47;99146.66;;;20.13;nan
72975;BME280;61166;54.228;37.632;2023-04-12T10:10:16;99135.94;;;19.38;nan
72975;BME280;61166;54.228;37.632;2023-04-12T10:12:45;99126.41;;;18.96;nan
72975;BME280;61166;54.228;37.632;2023-04-12T10:15:13;99129.88;;;18.71;nan
72975;BME280;61166;54.228;37.632;2023-04-12T10:18:00;99127.19;;;18.66;nan
72975;BME280;61166;54.228;37.632;2023-04-12T10:20:27;99128.25;;;18.70;nan
72975;BME280;61166;54.228;37.632;2023-04-12T10:22:55;99127.69;;;18.53;nan
72975;BME280;61166;54.228;37.632;2023-04-12T10:25:24;99122.63;;;18.36;nan
72975;BME280;61166;54.228;37.632;2023-04-12T10:27:51;99131.88;;;18.19;nan
72975;BME280;61166;54.228;37.632;2023-04-12T10:30:30;99113.56;;;18.53;nan
72975;BME280;61166;54.228;37.632;2023-04-12T10:35:51;99119.53;;;17.82;nan
72975;BME280;61166;54.228;37.632;2023-04-12T10:38:18;99101.72;;;17.98;nan
72975;BME280;61166;54.228;37.632;2023-04-12T10:41:15;99085.22;;;17.96;nan
72975;BME280;61166;54.228;37.632;2023-04-12T10:43:51;99104.66;;;17.96;nan
72975;BME280;61166;54.228;37.632;2023-04-12T10:49:07;99135.25;;;17.94;nan
72975;BME280;61166;54.228;37.632;2023-04-12T10:51:34;99103.28;;;17.78;nan
72975;BME280;61166;54.228;37.632;2023-04-12T10:56:39;99102.38;;;17.63;nan
72975;BME280;61166;54.228;37.632;2023-04-12T10:59:15;99090.75;;;17.74;nan
72975;BME280;61166;54.228;37.632;2023-04-12T11:02:07;99104.09;;;17.84;nan
72975;BME280;61166;54.228;37.632;2023-04-12T11:04:35;99091.31;;;17.81;nan
72975;BME280;61166;54.228;37.632;2023-04-12T11:07:06;99088.81;;;17.59;nan
72975;BME280;61166;54.228;37.632;2023-04-12T11:19:37;99080.09;;;17.69;nan
72975;BME280;61166;54.228;37.632;2023-04-12T11:22:05;99074.44;;;17.60;nan
72975;BME280;61166;54.228;37.632;2023-04-12T11:24:32;99066.81;;;17.74;nan
72975;BME280;61166;54.228;37.632;2023-04-12T11:27:03;99079.47;;;18.49;nan
72975;BME280;61166;54.228;37.632;2023-04-12T11:29:30;99068.59;;;18.71;nan
72975;BME280;61166;54.228;37.632;2023-04-12T11:31:57;99082.41;;;18.53;nan
72975;BME280;61166;54.228;37.632;2023-04-12T11:34:24;99072.03;;;18.36;nan
72975;BME280;61166;54.228;37.632;2023-04-12T11:36:53;99070.69;;;18.29;nan
72975;BME280;61166;54.228;37.632;2023-04-12T11:39:20;99067.78;;;18.40;nan
72975;BME280;61166;54.228;37.632;2023-04-12T11:41:47;99052.06;;;18.44;nan
72975;BME280;61166;54.228;37.632;2023-04-12T11:44:15;99045.66;;;18.55;nan
72975;BME280;61166;54.228;37.632;2023-04-12T11:46:42;99057.91;;;18.46;nan
72975;BME280;61166;54.228;37.632;2023-04-12T11:49:09;99053.91;;;18.38;nan
72975;BME280;61166;54.228;37.632;2023-04-12T11:51:36;99044.88;;;18.44;nan
72975;BME280;61166;54.228;37.632;2023-04-12T11:54:02;99049.13;;;18.40;nan
72975;BME280;61166;54.228;37.632;2023-04-12T11:56:29;99034.50;;;18.78;nan
72975;BME280;61166;54.228;37.632;2023-04-12T11:58:56;99052.06;;;18.64;nan
72975;BME280;61166;54.228;37.632;2023-04-12T12:01:22;99035.53;;;18.52;nan
72975;BME280;61166;54.228;37.632;2023-04-12T12:03:49;99033.13;;;18.51;nan
72975;BME280;61166;54.228;37.632;2023-04-12T12:06:17;99022.75;;;18.54;nan
72975;BME280;61166;54.228;37.632;2023-04-12T12:08:45;99014.25;;;18.62;nan
72975;BME280;61166;54.228;37.632;2023-04-12T12:11:12;99039.81;;;18.48;nan
72975;BME280;61166;54.228;37.632;2023-04-12T12:13:45;99032.34;;;18.50;nan
72975;BME280;61166;54.228;37.632;2023-04-12T12:16:12;99017.97;;;18.82;nan
72975;BME280;61166;54.228;37.632;2023-04-12T12:18:44;99012.38;;;18.73;nan
72975;BME280;61166;54.228;37.632;2023-04-12T12:23:41;99014.25;;;18.62;nan
72975;BME280;61166;54.228;37.632;2023-04-12T12:26:09;99011.84;;;18.45;nan
72975;BME280;61166;54.228;37.632;2023-04-12T12:28:52;98999.31;;;18.56;nan
72975;BME280;61166;54.228;37.632;2023-04-12T12:31:20;99019.56;;;18.32;nan
72975;BME280;61166;54.228;37.632;2023-04-12T12:33:48;98994.53;;;18.07;nan
72975;BME280;61166;54.228;37.632;2023-04-12T12:36:18;98982.00;;;17.98;nan
72975;BME280;61166;54.228;37.632;2023-04-12T12:38:45;98993.72;;;18.02;nan
72975;BME280;61166;54.228;37.632;2023-04-12T12:41:22;98983.88;;;18.02;nan
72975;BME280;61166;54.228;37.632;2023-04-12T12:43:51;98968.69;;;17.88;nan
72975;BME280;61166;54.228;37.632;2023-04-12T12:46:18;98967.38;;;17.85;nan
72975;BME280;61166;54.228;37.632;2023-04-12T12:48:47;98982.53;;;17.85;nan
72975;BME280;61166;54.228;37.632;2023-04-12T12:51:15;98988.63;;;17.75;nan
72975;BME280;61166;54.228;37.632;2023-04-12T12:53:42;98999.50;;;17.68;nan
72975;BME280;61166;54.228;37.632;2023-04-12T12:56:10;98974.25;;;17.71;nan
72975;BME280;61166;54.228;37.632;2023-04-12T12:58:37;98984.81;;;17.56;nan
72975;BME280;61166;54.228;37.632;2023-04-12T13:01:07;98974.19;;;17.56;nan
72975;BME280;61166;54.228;37.632;2023-04-12T13:03:33;98973.13;;;17.57;nan
72975;BME280;61166;54.228;37.632;2023-04-12T13:06:00;98968.06;;;17.60;nan
72975;BME280;61166;54.228;37.632;2023-04-12T13:08:28;98973.38;;;17.55;nan
72975;BME280;61166;54.228;37.632;2023-04-12T13:10:55;98970.44;;;17.52;nan
72975;BME280;61166;54.228;37.632;2023-04-12T13:13:22;98977.91;;;17.55;nan
72975;BME280;61166;54.228;37.632;2023-04-12T13:15:48;98966.97;;;17.46;nan
72975;BME280;61166;54.228;37.632;2023-04-12T13:18:15;98972.81;;;17.48;nan
72975;BME280;61166;54.228;37.632;2023-04-12T13:20:42;98972.56;;;17.55;nan
72975;BME280;61166;54.228;37.632;2023-04-12T13:23:09;98969.88;;;17.39;nan
72975;BME280;61166;54.228;37.632;2023-04-12T13:25:35;98962.69;;;17.40;nan
72975;BME280;61166;54.228;37.632;2023-04-12T13:28:02;98965.59;;;17.33;nan
72975;BME280;61166;54.228;37.632;2023-04-12T13:30:29;98970.91;;;17.33;nan
72975;BME280;61166;54.228;37.632;2023-04-12T13:32:55;98957.56;;;17.18;nan
72975;BME280;61166;54.228;37.632;2023-04-12T13:35:23;98969.25;;;17.17;nan
72975;BME280;61166;54.228;37.632;2023-04-12T13:37:50;98962.38;;;17.21;nan
72975;BME280;61166;54.228;37.632;2023-04-12T13:40:16;98955.97;;;17.12;nan
72975;BME280;61166;54.228;37.632;2023-04-12T13:42:43;98962.38;;;17.21;nan
72975;BME280;61166;54.228;37.632;2023-04-12T13:45:10;98959.94;;;17.09;nan
72975;BME280;61166;54.228;37.632;2023-04-12T13:47:37;98975.13;;;17.19;nan
72975;BME280;61166;54.228;37.632;2023-04-12T13:50:04;98947.50;;;17.20;nan
72975;BME280;61166;54.228;37.632;2023-04-12T13:52:32;98955.41;;;17.10;nan
72975;BME280;61166;54.228;37.632;2023-04-12T13:54:58;98973.25;;;17.14;nan
72975;BME280;61166;54.228;37.632;2023-04-12T13:57:25;98979.84;;;17.07;nan
72975;BME280;61166;54.228;37.632;2023-04-12T13:59:52;98964.38;;;16.99;nan
72975;BME280;61166;54.228;37.632;2023-04-12T14:02:18;98956.38;;;16.94;nan
72975;BME280;61166;54.228;37.632;2023-04-12T14:04:49;98956.44;;;17.04;nan
72975;BME280;61166;54.228;37.632;2023-04-12T14:07:16;98950.06;;;17.00;nan
72975;BME280;61166;54.228;37.632;2023-04-12T14:09:43;98952.16;;;16.98;nan
72975;BME280;61166;54.228;37.632;2023-04-12T14:56:29;98936.44;;;16.07;nan
72975;BME280;61166;54.228;37.632;2023-04-12T14:59:00;98933.72;;;16.02;nan
72975;BME280;61166;54.228;37.632;2023-04-12T15:11:17;98924.28;;;15.84;nan
72975;BME280;61166;54.228;37.632;2023-04-12T15:33:19;98918.69;;;16.12;nan
72975;BME280;61166;54.228;37.632;2023-04-12T15:38:13;98906.44;;;15.74;nan
72975;BME280;61166;54.228;37.632;2023-04-12T15:48:11;98916.63;;;15.61;nan
72975;BME280;61166;54.228;37.632;2023-04-12T15:53:05;98909.75;;;15.60;nan
72975;BME280;61166;54.228;37.632;2023-04-12T16:46:54;98950.38;;;13.94;nan
